Time;durP1;ratioP1;P1;durP2;ratioP2;P2;SDS_P1;SDS_P2;PMS_P1;PMS_P2;Temp;Humidity;BMP_temperature;BMP_pressure;BME280_temperature;BME280_humidity;BME280_pressure;Samples;Min_cycle;Max_cycle;Signal;HPM_P1;HPM_P2
2023/12/16 00:01:52;;;;;;;6.97;2.20;;;7.70;99.90;;;;;;5072563;28;20477;-90
2023/12/16 00:04:17;;;;;;;5.78;1.48;;;7.60;99.90;;;;;;5071388;28;20044;-91
2023/12/16 00:06:43;;;;;;;8.75;3.67;;;7.70;99.90;;;;;;5072733;28;20036;-90
2023/12/16 00:09:09;;;;;;;7.32;2.05;;;7.60;99.90;;;;;;5071230;28;20044;-90
2023/12/16 00:11:34;;;;;;;5.53;1.80;;;7.60;99.90;;;;;;5072443;28;20040;-90
2023/12/16 00:14:00;;;;;;;9.27;3.15;;;7.60;99.90;;;;;;5070958;28;20547;-90
2023/12/16 00:16:25;;;;;;;6.50;1.75;;;7.70;99.90;;;;;;5071250;28;20094;-90
2023/12/16 00:18:52;;;;;;;9.15;2.22;;;7.60;99.90;;;;;;5071162;28;20048;-90
2023/12/16 00:21:17;;;;;;;6.55;1.80;;;7.60;99.90;;;;;;5071141;28;20064;-89
2023/12/16 00:23:43;;;;;;;6.80;2.35;;;7.60;99.90;;;;;;5071036;28;20095;-90
2023/12/16 00:26:08;;;;;;;13.05;2.58;;;7.60;99.90;;;;;;5071320;28;20051;-90
2023/12/16 00:28:34;;;;;;;8.98;2.60;;;7.60;99.90;;;;;;5054193;28;20047;-90
2023/12/16 00:31:00;;;;;;;11.00;2.72;;;7.60;99.90;;;;;;5070704;28;20044;-90
2023/12/16 00:33:25;;;;;;;9.75;1.95;;;7.60;99.90;;;;;;5070652;28;20495;-90
2023/12/16 00:35:51;;;;;;;9.13;2.67;;;7.60;99.90;;;;;;5072008;28;20152;-89
2023/12/16 00:38:17;;;;;;;9.27;1.98;;;7.60;99.90;;;;;;5070960;28;20119;-90
2023/12/16 00:40:42;;;;;;;10.93;1.95;;;7.70;99.90;;;;;;5054328;28;20048;-90
2023/12/16 00:43:08;;;;;;;7.68;1.90;;;7.70;99.90;;;;;;5070925;28;20052;-90
2023/12/16 00:45:34;;;;;;;5.55;1.83;;;7.70;99.90;;;;;;5070798;28;20041;-91
2023/12/16 00:47:59;;;;;;;6.65;2.03;;;7.70;99.90;;;;;;5072078;28;20116;-90
2023/12/16 00:50:25;;;;;;;9.60;2.28;;;7.70;99.90;;;;;;5070535;28;20384;-89
2023/12/16 00:52:51;;;;;;;7.15;1.73;;;7.70;99.90;;;;;;5070456;28;20052;-89
2023/12/16 00:55:16;;;;;;;7.88;2.28;;;7.70;99.90;;;;;;5070623;28;20651;-91
2023/12/16 00:57:42;;;;;;;9.77;2.60;;;7.70;99.90;;;;;;5069392;28;20083;-90
2023/12/16 01:00:08;;;;;;;9.88;3.20;;;7.70;99.90;;;;;;5053489;28;20411;-90
2023/12/16 01:02:34;;;;;;;6.10;1.98;;;7.70;99.90;;;;;;5069681;28;20040;-90
2023/12/16 01:04:59;;;;;;;7.95;2.45;;;7.60;99.90;;;;;;5070333;28;20068;-90
2023/12/16 01:07:25;;;;;;;9.52;2.42;;;7.70;99.90;;;;;;5070422;28;20045;-90
2023/12/16 01:09:51;;;;;;;11.00;2.60;;;7.70;99.90;;;;;;5053345;28;20040;-90
2023/12/16 01:12:17;;;;;;;10.70;3.28;;;7.70;99.90;;;;;;5070108;28;20071;-90
2023/12/16 01:14:43;;;;;;;7.15;2.35;;;7.60;99.90;;;;;;5069436;28;20495;-90
2023/12/16 01:17:08;;;;;;;12.10;2.90;;;7.60;99.90;;;;;;5070185;28;20043;-90
2023/12/16 01:19:34;;;;;;;8.40;1.92;;;7.60;99.90;;;;;;5070650;28;20036;-90
2023/12/16 01:22:00;;;;;;;8.98;2.40;;;7.60;99.90;;;;;;5071120;28;20120;-90
2023/12/16 01:24:25;;;;;;;8.85;2.13;;;7.60;99.90;;;;;;5073694;28;20086;-90
2023/12/16 01:26:51;;;;;;;10.65;2.40;;;7.60;99.90;;;;;;5070206;28;20045;-90
2023/12/16 01:29:17;;;;;;;9.60;2.13;;;7.50;99.90;;;;;;5069997;28;20123;-90
2023/12/16 01:31:42;;;;;;;9.15;1.83;;;7.50;99.90;;;;;;5069632;28;20173;-91
2023/12/16 01:34:08;;;;;;;5.90;1.75;;;7.40;99.90;;;;;;5069735;28;20128;-90
2023/12/16 01:36:34;;;;;;;8.35;2.47;;;7.40;99.90;;;;;;5069858;28;20045;-90
2023/12/16 01:39:00;;;;;;;5.43;1.52;;;7.40;99.90;;;;;;5069659;28;20048;-90
2023/12/16 01:41:26;;;;;;;5.45;2.08;;;7.40;99.90;;;;;;5069325;28;20041;-90
2023/12/16 01:43:52;;;;;;;4.20;1.77;;;7.40;99.90;;;;;;5069280;28;20094;-90
2023/12/16 01:46:18;;;;;;;14.02;2.08;;;7.30;99.90;;;;;;5069164;28;20048;-90
2023/12/16 01:48:44;;;;;;;8.15;2.05;;;7.30;99.90;;;;;;5069515;28;20056;-91
2023/12/16 01:51:11;;;;;;;9.88;2.50;;;7.30;99.90;;;;;;5052779;28;20056;-90
2023/12/16 01:53:38;;;;;;;10.25;1.98;;;7.30;99.90;;;;;;5070539;28;20427;-90
2023/12/16 01:56:06;;;;;;;6.50;1.70;;;7.30;99.90;;;;;;5070552;28;20044;-90
2023/12/16 01:58:32;;;;;;;6.05;1.52;;;7.30;99.90;;;;;;5052822;28;20076;-90
2023/12/16 02:00:58;;;;;;;5.85;2.42;;;7.30;99.90;;;;;;5068983;28;20042;-90
2023/12/16 02:03:27;;;;;;;6.20;1.30;;;7.20;99.90;;;;;;5063087;28;20037;-90
2023/12/16 02:05:52;;;;;;;7.80;1.95;;;7.20;99.90;;;;;;5069128;28;20043;-90
2023/12/16 02:08:18;;;;;;;13.10;2.80;;;7.20;99.90;;;;;;5069252;28;20124;-90
2023/12/16 02:10:44;;;;;;;7.03;1.35;;;7.20;99.90;;;;;;5069206;28;20037;-89
2023/12/16 02:13:10;;;;;;;12.75;2.35;;;7.10;99.90;;;;;;5052169;28;20496;-90
2023/12/16 02:15:35;;;;;;;6.40;2.30;;;7.10;99.90;;;;;;5069038;28;20167;-89
2023/12/16 02:18:01;;;;;;;9.38;2.25;;;7.00;99.90;;;;;;5070034;28;20066;-90
2023/12/16 02:20:26;;;;;;;10.68;2.30;;;7.00;99.90;;;;;;5068899;28;20120;-90
2023/12/16 02:22:53;;;;;;;7.85;1.75;;;7.00;99.90;;;;;;5068809;28;20416;-89
2023/12/16 02:25:19;;;;;;;13.80;2.20;;;7.00;99.90;;;;;;5070012;28;20049;-90
2023/12/16 02:27:45;;;;;;;6.93;2.08;;;7.00;99.90;;;;;;5068690;28;20040;-91
2023/12/16 02:30:12;;;;;;;6.18;1.92;;;7.00;99.90;;;;;;5068808;28;20044;-90
2023/12/16 02:32:38;;;;;;;8.07;2.00;;;7.00;99.90;;;;;;5068985;28;20072;-89
2023/12/16 02:35:04;;;;;;;7.07;1.77;;;7.00;99.90;;;;;;5060088;28;20573;-90
2023/12/16 02:37:30;;;;;;;11.07;2.28;;;7.00;99.90;;;;;;5068418;28;20041;-90
2023/12/16 02:39:56;;;;;;;7.82;1.83;;;6.90;99.90;;;;;;5068288;28;20132;-90
2023/12/16 02:42:21;;;;;;;9.48;1.95;;;7.00;99.90;;;;;;5051618;28;20047;-90
2023/12/16 02:44:47;;;;;;;4.90;1.20;;;7.00;99.90;;;;;;5068104;28;20037;-89
2023/12/16 02:47:13;;;;;;;8.77;2.00;;;6.90;99.90;;;;;;5052356;28;20389;-90
2023/12/16 02:49:38;;;;;;;8.07;1.83;;;7.00;99.90;;;;;;5068775;28;20080;-89
2023/12/16 02:52:04;;;;;;;7.03;1.65;;;7.00;99.90;;;;;;5051757;28;20041;-90
2023/12/16 02:54:30;;;;;;;5.65;1.60;;;6.90;99.90;;;;;;5068455;28;20045;-89
2023/12/16 02:56:56;;;;;;;8.43;2.20;;;6.90;99.90;;;;;;5068565;28;20055;-90
2023/12/16 02:59:21;;;;;;;8.35;2.97;;;6.90;99.90;;;;;;5067527;28;20456;-90
2023/12/16 03:01:47;;;;;;;10.52;2.08;;;7.00;99.90;;;;;;5067254;28;20399;-90
2023/12/16 03:04:12;;;;;;;12.57;2.28;;;7.00;99.90;;;;;;5067353;28;20091;-90
2023/12/16 03:06:43;;;;;;;12.35;2.45;;;7.00;99.90;;;;;;5067633;28;20044;-89
2023/12/16 03:09:09;;;;;;;10.60;2.67;;;7.00;99.90;;;;;;5067685;28;20053;-89
2023/12/16 03:11:34;;;;;;;11.70;2.22;;;7.00;99.90;;;;;;5067220;28;20044;-90
2023/12/16 03:14:00;;;;;;;10.25;2.03;;;7.00;99.90;;;;;;5067122;28;20097;-90
2023/12/16 03:16:25;;;;;;;7.85;2.15;;;7.00;99.90;;;;;;5067582;28;20047;-90
2023/12/16 03:18:51;;;;;;;7.25;1.95;;;7.00;99.90;;;;;;5051813;28;20512;-90
2023/12/16 03:21:17;;;;;;;11.40;2.20;;;6.90;99.90;;;;;;5051266;28;20045;-90
2023/12/16 03:23:42;;;;;;;12.48;2.50;;;6.90;99.90;;;;;;5069463;28;20033;-89
2023/12/16 03:26:08;;;;;;;8.85;1.75;;;6.80;99.90;;;;;;5069665;28;20463;-89
2023/12/16 03:28:33;;;;;;;10.02;1.92;;;6.80;99.90;;;;;;5072267;28;20048;-89
2023/12/16 03:30:59;;;;;;;9.70;1.80;;;6.70;99.90;;;;;;5071708;28;20055;-90
2023/12/16 03:33:25;;;;;;;6.50;1.70;;;6.70;99.90;;;;;;5071760;28;20076;-89
2023/12/16 03:35:50;;;;;;;5.68;1.95;;;6.70;99.90;;;;;;5072368;28;20047;-90
2023/12/16 03:38:16;;;;;;;12.77;2.05;;;6.60;99.90;;;;;;5072305;28;20100;-89
2023/12/16 03:40:41;;;;;;;11.55;1.98;;;6.60;99.90;;;;;;5073442;28;20098;-89
2023/12/16 03:43:07;;;;;;;8.18;2.28;;;6.60;99.90;;;;;;5073135;28;20045;-89
2023/12/16 03:45:33;;;;;;;10.27;2.55;;;6.50;99.90;;;;;;5071992;28;20040;-90
2023/12/16 03:47:58;;;;;;;8.38;2.33;;;6.50;99.90;;;;;;5071952;28;20033;-90
2023/12/16 03:50:24;;;;;;;9.02;1.95;;;6.50;99.90;;;;;;5055361;28;20523;-90
2023/12/16 03:52:49;;;;;;;13.43;1.98;;;6.50;99.90;;;;;;5071531;28;20051;-90
2023/12/16 03:55:15;;;;;;;8.85;2.10;;;6.50;99.90;;;;;;5071509;28;20286;-90
2023/12/16 03:57:41;;;;;;;6.63;2.08;;;6.50;99.90;;;;;;5072009;28;20036;-90
2023/12/16 04:00:08;;;;;;;9.00;1.80;;;6.40;99.90;;;;;;5072714;28;20535;-90
2023/12/16 04:02:33;;;;;;;9.15;2.00;;;6.40;99.90;;;;;;5071333;28;20047;-90
2023/12/16 04:05:00;;;;;;;7.78;1.83;;;6.40;99.90;;;;;;5072717;28;20032;-90
2023/12/16 04:07:25;;;;;;;7.20;1.83;;;6.40;99.90;;;;;;5071302;28;20051;-90
2023/12/16 04:09:51;;;;;;;8.10;1.92;;;6.40;99.90;;;;;;5071290;28;20052;-90
2023/12/16 04:12:16;;;;;;;7.18;1.98;;;6.40;99.90;;;;;;5072685;28;20082;-90
2023/12/16 04:14:42;;;;;;;11.30;2.00;;;6.40;99.90;;;;;;5054617;28;20515;-90
2023/12/16 04:17:07;;;;;;;8.77;1.92;;;6.40;99.90;;;;;;5072589;28;20041;-89
2023/12/16 04:19:33;;;;;;;14.50;2.47;;;6.40;99.90;;;;;;5071201;28;20040;-90
2023/12/16 04:21:59;;;;;;;9.10;2.00;;;6.40;99.90;;;;;;5070944;28;20084;-89
2023/12/16 04:24:24;;;;;;;10.20;2.13;;;6.40;99.90;;;;;;5071303;28;20486;-90
2023/12/16 04:26:50;;;;;;;11.57;2.83;;;6.40;99.90;;;;;;5072563;28;20054;-90
2023/12/16 04:29:16;;;;;;;4.70;1.15;;;6.40;99.90;;;;;;5071099;28;20120;-90
2023/12/16 04:31:42;;;;;;;7.97;1.42;;;6.50;99.90;;;;;;5070640;28;20127;-90
2023/12/16 04:34:08;;;;;;;5.32;1.50;;;6.50;99.90;;;;;;5070871;28;20046;-90
2023/12/16 04:36:33;;;;;;;2.42;1.02;;;6.50;99.90;;;;;;5071041;28;20040;-90
2023/12/16 04:39:00;;;;;;;8.32;1.73;;;6.60;99.90;;;;;;5069956;28;20048;-90
2023/12/16 04:41:25;;;;;;;7.13;1.75;;;6.50;99.90;;;;;;5070487;28;20044;-90
2023/12/16 04:43:53;;;;;;;16.88;1.95;;;6.50;99.90;;;;;;5070859;28;20047;-89
2023/12/16 04:46:22;;;;;;;9.40;2.10;;;6.60;99.90;;;;;;5070872;28;20040;-90
2023/12/16 04:48:48;;;;;;;10.90;2.53;;;6.60;99.90;;;;;;5072016;28;20131;-90
2023/12/16 04:51:13;;;;;;;6.15;1.77;;;6.60;99.90;;;;;;5070479;28;20689;-90
2023/12/16 04:53:39;;;;;;;5.03;2.03;;;6.60;99.90;;;;;;5070354;28;20052;-90
2023/12/16 04:56:05;;;;;;;11.18;2.40;;;6.60;99.90;;;;;;5070734;28;20465;-90
2023/12/16 04:58:32;;;;;;;11.40;1.95;;;6.60;99.90;;;;;;5070613;28;20125;-89
2023/12/16 05:00:58;;;;;;;8.25;2.83;;;6.60;99.90;;;;;;5070300;28;20059;-90
2023/12/16 05:03:23;;;;;;;10.30;2.13;;;6.60;99.90;;;;;;5070208;28;20508;-89
2023/12/16 05:05:49;;;;;;;6.45;2.00;;;6.50;99.90;;;;;;5084977;28;20092;-89
2023/12/16 05:08:15;;;;;;;7.93;2.10;;;6.50;99.90;;;;;;5072260;28;20055;-90
2023/12/16 05:10:41;;;;;;;8.93;2.35;;;6.50;99.90;;;;;;5064262;28;20047;-89
2023/12/16 05:13:10;;;;;;;11.05;2.20;;;6.40;99.90;;;;;;5060862;28;20471;-90
2023/12/16 05:15:39;;;;;;;10.98;2.17;;;6.40;99.90;;;;;;5068798;28;20048;-89
2023/12/16 05:18:06;;;;;;;12.77;2.53;;;6.40;99.90;;;;;;5064074;28;20033;-90
2023/12/16 05:20:32;;;;;;;11.52;2.30;;;6.30;99.90;;;;;;5064809;28;20041;-89
2023/12/16 05:22:59;;;;;;;14.75;2.63;;;6.40;99.90;;;;;;5069598;28;20093;-89
2023/12/16 05:25:26;;;;;;;9.75;2.28;;;6.40;99.90;;;;;;5053829;28;20040;-89
2023/12/16 05:27:52;;;;;;;9.23;2.33;;;6.40;99.90;;;;;;5070122;28;20115;-90
2023/12/16 05:30:18;;;;;;;11.10;2.00;;;6.40;99.90;;;;;;5070004;28;20119;-89
2023/12/16 05:32:44;;;;;;;5.35;1.75;;;6.40;99.90;;;;;;5069481;28;20079;-89
2023/12/16 05:35:10;;;;;;;7.43;1.38;;;6.40;99.90;;;;;;5069521;28;20040;-89
2023/12/16 05:37:35;;;;;;;14.13;3.13;;;6.40;99.90;;;;;;5069774;28;20090;-89
2023/12/16 05:40:01;;;;;;;7.47;1.80;;;6.40;99.90;;;;;;5069138;28;20040;-89
2023/12/16 05:42:26;;;;;;;10.50;2.65;;;6.40;99.90;;;;;;5068823;28;20052;-90
2023/12/16 05:44:52;;;;;;;8.25;2.45;;;6.40;99.90;;;;;;5069400;28;20045;-89
2023/12/16 05:47:18;;;;;;;8.10;2.47;;;6.40;99.90;;;;;;5069965;28;20045;-89
2023/12/16 05:49:43;;;;;;;12.45;2.38;;;6.40;99.90;;;;;;5052491;28;20037;-89
2023/12/16 05:52:09;;;;;;;13.32;2.97;;;6.40;99.90;;;;;;5069884;28;20047;-89
2023/12/16 05:54:35;;;;;;;13.95;3.13;;;6.40;99.90;;;;;;5070189;28;20044;-89
2023/12/16 05:57:01;;;;;;;10.18;2.55;;;6.40;99.90;;;;;;5073432;28;20406;-89
2023/12/16 05:59:27;;;;;;;11.05;2.80;;;6.40;99.90;;;;;;5072239;28;20124;-89
2023/12/16 06:01:53;;;;;;;14.82;2.15;;;6.40;99.90;;;;;;5052224;28;20044;-89
2023/12/16 06:04:19;;;;;;;8.80;3.35;;;6.40;99.90;;;;;;5052329;28;20093;-89
2023/12/16 06:06:44;;;;;;;8.90;2.55;;;6.40;99.90;;;;;;5070399;28;20043;-89
2023/12/16 06:09:10;;;;;;;11.23;2.13;;;6.30;99.90;;;;;;5069257;28;20451;-89
2023/12/16 06:11:36;;;;;;;11.63;3.20;;;6.30;99.90;;;;;;5068736;28;20094;-89
2023/12/16 06:14:01;;;;;;;11.93;2.40;;;6.30;99.90;;;;;;5068939;28;20119;-89
2023/12/16 06:16:27;;;;;;;10.73;3.10;;;6.30;99.90;;;;;;5069126;28;20044;-88
2023/12/16 06:18:52;;;;;;;12.18;2.60;;;6.30;99.90;;;;;;5070075;28;20516;-89
2023/12/16 06:21:18;;;;;;;15.98;2.63;;;6.30;99.90;;;;;;5070171;28;20047;-89
2023/12/16 06:23:44;;;;;;;11.15;2.97;;;6.30;99.90;;;;;;5068768;28;20098;-89
2023/12/16 06:26:09;;;;;;;15.05;3.17;;;6.30;99.90;;;;;;5068852;28;20079;-89
2023/12/16 06:28:35;;;;;;;12.13;3.22;;;6.20;99.90;;;;;;5052243;28;20083;-90
2023/12/16 06:31:00;;;;;;;12.75;2.65;;;6.20;99.90;;;;;;5068755;28;20048;-89
2023/12/16 06:33:26;;;;;;;13.13;2.75;;;6.20;99.90;;;;;;5061717;28;20057;-89
2023/12/16 06:35:52;;;;;;;10.13;2.65;;;6.20;99.90;;;;;;5066869;28;20045;-88
2023/12/16 06:38:17;;;;;;;7.72;1.85;;;6.20;99.90;;;;;;5068603;28;20381;-90
2023/12/16 06:40:43;;;;;;;8.43;1.85;;;6.20;99.90;;;;;;5051952;28;20041;-89
2023/12/16 06:43:09;;;;;;;8.00;1.77;;;6.20;99.90;;;;;;5068463;28;20515;-89
2023/12/16 06:45:38;;;;;;;4.65;1.80;;;6.20;99.90;;;;;;5068445;28;20076;-89
2023/12/16 06:48:04;;;;;;;5.55;2.05;;;6.20;99.90;;;;;;5069585;28;20112;-89
2023/12/16 06:50:30;;;;;;;8.98;2.00;;;6.20;99.90;;;;;;5051841;28;20416;-88
2023/12/16 06:52:55;;;;;;;12.35;3.15;;;6.20;99.90;;;;;;5051467;28;20040;-90
2023/12/16 06:55:21;;;;;;;9.10;2.60;;;6.20;99.90;;;;;;5068766;28;20127;-89
2023/12/16 06:57:46;;;;;;;10.88;2.67;;;6.30;99.90;;;;;;5068480;28;20036;-89
2023/12/16 07:00:13;;;;;;;11.30;3.42;;;6.20;99.90;;;;;;5050795;28;20126;-89
2023/12/16 07:02:41;;;;;;;11.07;2.88;;;6.30;99.90;;;;;;5065197;28;20139;-89
2023/12/16 07:05:08;;;;;;;14.55;3.25;;;6.20;99.90;;;;;;5060610;28;20052;-90
2023/12/16 07:07:34;;;;;;;11.80;3.83;;;6.30;99.90;;;;;;5069743;28;20048;-89
2023/12/16 07:10:00;;;;;;;10.30;2.50;;;6.30;99.90;;;;;;5068613;28;20045;-89
2023/12/16 07:12:26;;;;;;;8.18;2.83;;;6.30;99.90;;;;;;5069453;28;20105;-88
2023/12/16 07:14:51;;;;;;;9.40;3.22;;;6.30;99.90;;;;;;5068273;28;20049;-89
2023/12/16 07:17:17;;;;;;;16.30;3.33;;;6.20;99.90;;;;;;5068259;28;20067;-89
2023/12/16 07:19:42;;;;;;;12.02;3.67;;;6.20;99.90;;;;;;5068139;28;20477;-89
2023/12/16 07:22:08;;;;;;;17.80;3.72;;;6.20;99.90;;;;;;5068007;28;20047;-89
2023/12/16 07:24:34;;;;;;;15.02;3.92;;;6.20;99.90;;;;;;5068130;28;20052;-89
2023/12/16 07:26:59;;;;;;;11.40;3.25;;;6.20;99.90;;;;;;5069615;28;20125;-89
2023/12/16 07:29:25;;;;;;;9.23;3.25;;;6.20;99.90;;;;;;5068596;28;20040;-89
2023/12/16 07:31:51;;;;;;;8.50;2.75;;;6.20;99.90;;;;;;5068414;28;20127;-89
2023/12/16 07:34:17;;;;;;;14.52;3.45;;;6.20;99.90;;;;;;5067960;28;20051;-89
2023/12/16 07:36:43;;;;;;;17.33;4.57;;;6.20;99.90;;;;;;5051315;28;20053;-90
2023/12/16 07:39:09;;;;;;;11.90;4.38;;;6.20;99.90;;;;;;5069529;28;20033;-89
2023/12/16 07:41:35;;;;;;;8.32;3.08;;;6.30;99.90;;;;;;5051670;28;20499;-89
2023/12/16 07:44:01;;;;;;;11.23;2.95;;;6.30;99.90;;;;;;5050835;28;20048;-89
2023/12/16 07:46:28;;;;;;;18.88;5.00;;;6.30;99.90;;;;;;5069095;28;20048;-89
2023/12/16 07:48:53;;;;;;;16.88;3.55;;;6.30;99.90;;;;;;5068145;28;20044;-88
2023/12/16 07:51:19;;;;;;;15.77;4.10;;;6.30;99.90;;;;;;5068112;28;20058;-89
2023/12/16 07:53:48;;;;;;;16.73;3.70;;;6.30;99.90;;;;;;5059911;28;20041;-89
2023/12/16 07:56:27;;;;;;;14.77;4.60;;;6.40;99.90;;;;;;5064465;28;20037;-89
2023/12/16 07:58:53;;;;;;;16.98;3.90;;;6.40;99.90;;;;;;5067622;28;20040;-89
2023/12/16 08:01:20;;;;;;;15.68;4.20;;;6.40;99.90;;;;;;5067754;28;20048;-90
2023/12/16 08:03:47;;;;;;;9.18;3.83;;;6.40;99.90;;;;;;5067467;28;20174;-90
2023/12/16 08:06:15;;;;;;;17.90;5.03;;;6.40;99.90;;;;;;5069341;28;20059;-89
2023/12/16 08:08:42;;;;;;;11.85;3.88;;;6.50;99.90;;;;;;5067782;28;20044;-90
2023/12/16 08:11:08;;;;;;;16.73;3.90;;;6.50;99.90;;;;;;5068289;28;20048;-90
2023/12/16 08:13:35;;;;;;;13.20;4.70;;;6.50;99.90;;;;;;5071570;28;20048;-90
2023/12/16 08:16:01;;;;;;;15.88;4.07;;;6.60;99.90;;;;;;5074171;28;20107;-90
2023/12/16 08:18:27;;;;;;;11.07;2.95;;;6.50;99.90;;;;;;5071632;28;20037;-89
2023/12/16 08:20:53;;;;;;;13.65;4.47;;;6.60;99.90;;;;;;5070975;28;20113;-89
2023/12/16 08:23:19;;;;;;;9.63;3.92;;;6.60;99.90;;;;;;5070545;28;20076;-89
2023/12/16 08:25:45;;;;;;;12.75;4.10;;;6.60;99.90;;;;;;5071405;28;20055;-90
2023/12/16 08:28:11;;;;;;;18.98;4.25;;;6.60;99.90;;;;;;5071192;28;20055;-90
2023/12/16 08:30:37;;;;;;;9.65;2.95;;;6.60;99.90;;;;;;5054494;28;20044;-89
2023/12/16 08:33:03;;;;;;;21.67;4.68;;;6.70;99.90;;;;;;5071371;28;20111;-90
2023/12/16 08:35:29;;;;;;;12.73;3.70;;;6.70;99.90;;;;;;5070877;28;20044;-89
2023/12/16 08:37:55;;;;;;;15.38;4.47;;;6.70;99.90;;;;;;5071951;28;20040;-89
2023/12/16 08:40:21;;;;;;;13.93;4.15;;;6.70;99.90;;;;;;5070957;28;20578;-89
2023/12/16 08:42:47;;;;;;;15.95;4.78;;;6.80;99.90;;;;;;5070748;28;20044;-89
2023/12/16 08:45:13;;;;;;;15.05;5.05;;;6.70;99.90;;;;;;5054454;28;20048;-90
2023/12/16 08:47:40;;;;;;;13.68;4.28;;;6.80;99.90;;;;;;5070975;28;20037;-90
2023/12/16 08:50:07;;;;;;;14.90;4.95;;;6.80;99.90;;;;;;5072100;28;20075;-90
2023/12/16 08:52:33;;;;;;;9.27;2.80;;;6.80;99.90;;;;;;5069891;28;20047;-90
2023/12/16 08:54:58;;;;;;;12.35;3.55;;;6.80;99.90;;;;;;5071781;28;20029;-89
2023/12/16 08:57:24;;;;;;;17.23;5.28;;;6.90;99.90;;;;;;5070337;28;20086;-90
2023/12/16 08:59:50;;;;;;;12.77;4.63;;;6.80;99.90;;;;;;5070431;28;20072;-90
2023/12/16 09:02:16;;;;;;;17.25;4.75;;;6.80;99.90;;;;;;5069943;28;20079;-90
2023/12/16 09:04:41;;;;;;;16.85;5.97;;;6.90;99.90;;;;;;5070135;28;20095;-90
2023/12/16 09:07:07;;;;;;;15.38;4.55;;;6.90;99.90;;;;;;5070693;28;20106;-89
2023/12/16 09:09:33;;;;;;;13.40;4.22;;;6.90;99.90;;;;;;5050323;28;20045;-91
2023/12/16 09:11:58;;;;;;;16.60;5.10;;;6.90;99.90;;;;;;5062159;28;20056;-90
2023/12/16 09:14:25;;;;;;;19.23;4.90;;;7.00;99.90;;;;;;5070444;28;20127;-91
2023/12/16 09:16:50;;;;;;;16.45;4.85;;;7.00;99.90;;;;;;5070318;28;20045;-90
2023/12/16 09:19:16;;;;;;;16.33;4.78;;;7.00;99.90;;;;;;5069801;28;20197;-89
2023/12/16 09:21:42;;;;;;;11.18;4.45;;;7.00;99.90;;;;;;5069839;28;20041;-89
2023/12/16 09:24:08;;;;;;;12.43;4.40;;;7.00;99.90;;;;;;5064011;28;20041;-90
2023/12/16 09:26:34;;;;;;;18.05;4.97;;;7.00;99.90;;;;;;5052331;28;20412;-90
2023/12/16 09:29:00;;;;;;;13.77;3.28;;;7.00;99.90;;;;;;5067847;28;20048;-90
2023/12/16 09:31:26;;;;;;;15.80;4.70;;;7.10;99.90;;;;;;5059096;28;20037;-90
2023/12/16 09:33:52;;;;;;;15.88;4.00;;;7.00;99.90;;;;;;5068501;28;20090;-90
2023/12/16 09:36:17;;;;;;;17.20;3.80;;;7.10;99.90;;;;;;5064829;28;20048;-90
2023/12/16 09:38:43;;;;;;;12.05;3.85;;;7.10;99.90;;;;;;5066762;28;20496;-90
2023/12/16 09:41:22;;;;;;;10.50;3.22;;;7.10;99.90;;;;;;5068332;28;20064;-90
2023/12/16 09:43:53;;;;;;;17.58;5.25;;;7.10;99.90;;;;;;5069655;28;20118;-90
2023/12/16 09:46:20;;;;;;;16.13;4.53;;;7.20;99.90;;;;;;5068994;28;20076;-89
2023/12/16 09:48:46;;;;;;;15.95;3.72;;;7.20;99.90;;;;;;5069623;28;20086;-90
2023/12/16 09:51:12;;;;;;;8.02;2.40;;;7.20;99.90;;;;;;5069347;28;20434;-90
2023/12/16 09:53:39;;;;;;;16.75;4.20;;;7.20;99.90;;;;;;5069171;28;20052;-90
2023/12/16 09:56:05;;;;;;;18.98;4.35;;;7.20;99.90;;;;;;5070892;28;20084;-90
2023/12/16 09:58:33;;;;;;;14.63;4.43;;;7.20;99.90;;;;;;5053024;28;20106;-91
2023/12/16 10:01:01;;;;;;;13.88;4.07;;;7.20;99.90;;;;;;5069160;28;20134;-90
2023/12/16 10:03:27;;;;;;;16.05;4.88;;;7.20;99.90;;;;;;5069460;28;20462;-90
2023/12/16 10:05:53;;;;;;;12.98;5.00;;;7.20;99.90;;;;;;5069374;28;20079;-90
2023/12/16 10:08:19;;;;;;;12.60;3.60;;;7.30;99.90;;;;;;5069017;28;20512;-90
2023/12/16 10:10:44;;;;;;;17.25;3.67;;;7.30;99.90;;;;;;5052247;28;20103;-89
2023/12/16 10:13:10;;;;;;;17.30;4.03;;;7.30;99.90;;;;;;5069087;28;20131;-90
2023/12/16 10:15:37;;;;;;;15.63;4.05;;;7.30;99.90;;;;;;5052482;28;20095;-90
2023/12/16 10:18:03;;;;;;;20.20;4.15;;;7.30;99.90;;;;;;5068931;28;20530;-90
2023/12/16 10:20:30;;;;;;;21.08;3.70;;;7.40;99.90;;;;;;5067892;28;20120;-89
2023/12/16 10:22:59;;;;;;;12.30;4.25;;;7.40;99.90;;;;;;5051782;28;20282;-90
2023/12/16 10:25:25;;;;;;;11.52;3.80;;;7.50;99.90;;;;;;5070260;28;20051;-90
2023/12/16 10:28:00;;;;;;;10.95;3.63;;;7.50;99.90;;;;;;5069486;28;20123;-90
2023/12/16 10:30:25;;;;;;;14.65;4.47;;;7.50;99.90;;;;;;5069450;28;20040;-90
2023/12/16 10:32:53;;;;;;;13.55;4.78;;;7.50;99.90;;;;;;5070459;28;20393;-90
2023/12/16 10:35:21;;;;;;;16.02;4.55;;;7.50;99.90;;;;;;5065092;28;20048;-90
2023/12/16 10:37:49;;;;;;;16.98;4.22;;;7.50;99.90;;;;;;5066553;28;20100;-89
2023/12/16 10:40:15;;;;;;;14.70;3.80;;;7.50;99.90;;;;;;5052068;28;20046;-89
2023/12/16 10:42:41;;;;;;;16.45;4.18;;;7.50;99.90;;;;;;5068792;28;20044;-90
2023/12/16 10:45:09;;;;;;;19.33;4.90;;;7.50;99.90;;;;;;5069141;28;20507;-90
2023/12/16 10:47:36;;;;;;;13.30;3.88;;;7.50;99.90;;;;;;5068760;28;20043;-90
2023/12/16 10:50:03;;;;;;;9.60;3.70;;;7.50;99.90;;;;;;5051826;28;20044;-89
2023/12/16 10:52:34;;;;;;;21.88;4.97;;;7.60;99.90;;;;;;5052049;28;20044;-90
2023/12/16 10:55:05;;;;;;;23.10;6.03;;;7.60;99.90;;;;;;5068821;28;20754;-90
2023/12/16 10:57:46;;;;;;;9.47;3.37;;;7.60;99.90;;;;;;5052164;28;20132;-90
2023/12/16 11:00:19;;;;;;;16.35;3.75;;;7.60;99.90;;;;;;5069462;28;20521;-90
2023/12/16 11:03:04;;;;;;;14.23;2.58;;;7.60;99.90;;;;;;5051684;28;20495;-91
2023/12/16 11:05:33;;;;;;;12.25;3.22;;;7.60;99.90;;;;;;5069765;28;20092;-90
2023/12/16 11:08:02;;;;;;;16.95;4.55;;;7.70;99.90;;;;;;5060241;28;20040;-91
2023/12/16 11:10:31;;;;;;;12.73;4.40;;;7.70;99.90;;;;;;5067935;28;20507;-91
2023/12/16 11:13:04;;;;;;;9.32;2.85;;;7.70;99.90;;;;;;5068638;28;20127;-91
2023/12/16 11:15:34;;;;;;;16.23;4.32;;;7.70;99.90;;;;;;5068592;28;20045;-91
2023/12/16 11:18:09;;;;;;;10.65;4.00;;;7.70;99.90;;;;;;5068424;28;20041;-91
2023/12/16 11:20:44;;;;;;;24.38;6.10;;;7.70;99.90;;;;;;5068106;28;20495;-90
2023/12/16 11:23:10;;;;;;;15.00;5.18;;;7.70;99.90;;;;;;5068237;28;20087;-91
2023/12/16 11:25:36;;;;;;;21.35;5.82;;;7.80;99.90;;;;;;5067835;28;20040;-90
2023/12/16 11:28:05;;;;;;;19.00;7.00;;;7.80;99.90;;;;;;5069164;28;20032;-91
2023/12/16 11:30:34;;;;;;;26.55;8.32;;;7.80;99.90;;;;;;5067718;28;20583;-91
2023/12/16 11:33:00;;;;;;;16.83;5.45;;;7.80;99.90;;;;;;5067800;28;20507;-91
2023/12/16 11:35:38;;;;;;;16.25;6.40;;;7.80;99.90;;;;;;5068175;28;20743;-92
2023/12/16 11:38:05;;;;;;;19.55;6.35;;;7.80;99.90;;;;;;5068251;28;20041;-91
2023/12/16 11:40:47;;;;;;;10.25;3.63;;;7.80;99.90;;;;;;5067694;28;20121;-90
2023/12/16 11:43:13;;;;;;;17.35;6.57;;;7.80;99.90;;;;;;5062211;28;20403;-91
2023/12/16 11:45:40;;;;;;;13.68;6.30;;;7.80;99.90;;;;;;5069217;28;20170;-91
2023/12/16 11:48:07;;;;;;;21.02;7.68;;;7.90;99.90;;;;;;5070618;28;20587;-90
2023/12/16 11:50:34;;;;;;;11.88;5.07;;;7.90;99.90;;;;;;5071393;28;20125;-91
2023/12/16 11:53:01;;;;;;;16.35;6.32;;;7.90;99.90;;;;;;5071145;28;20110;-91
2023/12/16 11:55:27;;;;;;;9.90;4.10;;;7.90;99.90;;;;;;5065451;28;20094;-90
2023/12/16 11:57:55;;;;;;;18.63;5.03;;;8.00;99.90;;;;;;5070076;28;20044;-90
2023/12/16 12:00:22;;;;;;;11.18;5.28;;;8.00;99.90;;;;;;5090102;28;20032;-91
2023/12/16 12:02:51;;;;;;;16.50;5.25;;;8.00;99.90;;;;;;5067714;28;20053;-90
2023/12/16 12:05:17;;;;;;;19.27;6.57;;;8.00;99.90;;;;;;5067975;28;20115;-90
2023/12/16 12:07:43;;;;;;;14.02;4.63;;;8.00;99.90;;;;;;5067482;28;20048;-89
2023/12/16 12:10:09;;;;;;;9.52;3.85;;;8.00;99.90;;;;;;5060304;28;20385;-90
2023/12/16 12:12:35;;;;;;;14.05;4.88;;;8.10;99.90;;;;;;5068231;28;20040;-90
2023/12/16 12:15:01;;;;;;;12.48;5.82;;;8.00;99.90;;;;;;5067261;28;20036;-91
2023/12/16 12:17:28;;;;;;;12.82;5.55;;;8.10;99.90;;;;;;5071205;28;20052;-91
2023/12/16 12:19:57;;;;;;;14.95;5.80;;;8.10;99.90;;;;;;5070924;28;20524;-88
2023/12/16 12:22:23;;;;;;;9.20;3.30;;;8.10;99.90;;;;;;5066747;28;20044;-89
2023/12/16 12:24:50;;;;;;;14.60;7.10;;;8.10;99.90;;;;;;5054214;28;20055;-90
2023/12/16 12:27:16;;;;;;;18.58;7.20;;;8.10;99.90;;;;;;5067497;28;20523;-90
2023/12/16 12:29:56;;;;;;;16.90;7.20;;;8.10;99.90;;;;;;5060308;28;20417;-90
2023/12/16 12:32:29;;;;;;;18.30;7.43;;;8.10;99.90;;;;;;5042164;28;20033;-90
2023/12/16 12:35:05;;;;;;;14.25;5.97;;;8.20;99.90;;;;;;5041759;28;20045;-89
2023/12/16 12:37:39;;;;;;;10.70;4.20;;;8.10;99.90;;;;;;5058517;28;20047;-90
2023/12/16 12:40:26;;;;;;;12.95;4.32;;;8.20;99.90;;;;;;5084901;28;20036;-89
2023/12/16 12:42:58;;;;;;;13.18;6.05;;;8.20;99.90;;;;;;5058742;28;20048;-90
2023/12/16 12:45:25;;;;;;;17.33;6.32;;;8.20;99.90;;;;;;5061714;28;20040;-90
2023/12/16 12:47:56;;;;;;;15.18;5.57;;;8.20;99.90;;;;;;5063255;28;20515;-90